PWSweather.com
Personal Weather Stations
Station Observations
DW0826
Near, Fish Camp, CA 93623

NearFish Camp, CA 93623

Lat: 37.454233, Lon: -119.64568

Elevation: 4960

Station Type: Davis VantagePro2

Latest ConditionsUpdated 10:00:13 AM PDT Monday, Aug 20, 2018
Currently Today's Max Today's Min Today's Average
Temperature 79.5°F26.4°C 79.5°F26.4°C 71.3°F21.8°C 73.7°F23.2°C
Dew Point 36.1°F2.3°C 38.3°F3.5°C 31.8°F-0.1°C 34.2°F1.2°C
Winds 3.0 mph SE4.8 kmh SE 4.0 mph -6.4 kmh - - 1.5 mph 2.4 kmh
Wind Gusts 12.0 mph19.3 kmh 12.0 mph19.3 kmh - -
Humidity 21% 26% 21% 24%
Pressure 29.95 in1014.2 mb 29.95 in1014.2 mb 29.92 in1013.2 mb -
Hour Temp Dew Point Humidity Winds Wind Gusts Pressure Precip Precip Rate Daily Precip Total
10:00 AM 79.5°F26.4°C 36.1°F2.3°C 21% 3.0 mph SE4.8 kmh SE 12.0 mph19.3 kmh 29.95 in1014.2 mb 0.00 in0.0 mm 0.00 in0.0 mm 0.00 in0.0 mm
09:30 AM 78.2°F25.7°C 36.2°F2.3°C 22% 2.0 mph SE3.2 kmh SE 10.0 mph16.1 kmh 29.95 in1014.2 mb 0.00 in0.0 mm 0.00 in0.0 mm 0.00 in0.0 mm
09:00 AM 77.2°F25.1°C 36.5°F2.5°C 23% 4.0 mph S6.4 kmh S 12.0 mph19.3 kmh 29.95 in1014.2 mb 0.00 in0.0 mm 0.00 in0.0 mm 0.00 in0.0 mm
08:30 AM 76.9°F24.9°C 38.3°F3.5°C 25% 4.0 mph ESE6.4 kmh ESE 7.0 mph11.3 kmh 29.95 in1014.2 mb 0.00 in0.0 mm 0.00 in0.0 mm 0.00 in0.0 mm
08:00 AM 75.8°F24.3°C 36.4°F2.4°C 24% 1.0 mph SE1.6 kmh SE 5.0 mph8.0 kmh 29.94 in1013.9 mb 0.00 in0.0 mm 0.00 in0.0 mm 0.00 in0.0 mm
07:30 AM 74.0°F23.3°C 35.9°F2.2°C 25% 1.0 mph WSW1.6 kmh WSW 2.0 mph3.2 kmh 29.94 in1013.9 mb 0.00 in0.0 mm 0.00 in0.0 mm 0.00 in0.0 mm
07:00 AM 72.5°F22.5°C 35.6°F2.0°C 26% 1.0 mph WSW1.6 kmh WSW 5.0 mph8.0 kmh 29.93 in1013.5 mb 0.00 in0.0 mm 0.00 in0.0 mm 0.00 in0.0 mm
06:30 AM 71.9°F22.2°C 35.1°F1.7°C 26% 4.0 mph WSW6.4 kmh WSW 5.0 mph8.0 kmh 29.92 in1013.2 mb 0.00 in0.0 mm 0.00 in0.0 mm 0.00 in0.0 mm
06:00 AM 72.6°F22.6°C 33.7°F0.9°C 24% 2.0 mph WSW3.2 kmh WSW 3.0 mph4.8 kmh 29.92 in1013.2 mb 0.00 in0.0 mm 0.00 in0.0 mm 0.00 in0.0 mm
05:30 AM 72.6°F22.6°C 33.7°F0.9°C 24% 2.0 mph WSW3.2 kmh WSW 4.0 mph6.4 kmh 29.92 in1013.2 mb 0.00 in0.0 mm 0.00 in0.0 mm 0.00 in0.0 mm
05:00 AM 72.6°F22.6°C 33.7°F0.9°C 24% 1.0 mph W1.6 kmh W 3.0 mph4.8 kmh 29.92 in1013.2 mb 0.00 in0.0 mm 0.00 in0.0 mm 0.00 in0.0 mm
04:30 AM 73.4°F23.0°C 33.3°F0.7°C 23% 2.0 mph W3.2 kmh W 4.0 mph6.4 kmh 29.92 in1013.2 mb 0.00 in0.0 mm 0.00 in0.0 mm 0.00 in0.0 mm
04:00 AM 72.6°F22.6°C 32.6°F0.3°C 23% Calm Calm 3.0 mph4.8 kmh 29.93 in1013.5 mb 0.00 in0.0 mm 0.00 in0.0 mm 0.00 in0.0 mm
03:30 AM 72.4°F22.4°C 32.5°F0.3°C 23% 1.0 mph W1.6 kmh W 2.0 mph3.2 kmh 29.92 in1013.2 mb 0.00 in0.0 mm 0.00 in0.0 mm 0.00 in0.0 mm
03:00 AM 71.3°F21.8°C 32.6°F0.3°C 24% 1.0 mph W1.6 kmh W 3.0 mph4.8 kmh 29.92 in1013.2 mb 0.00 in0.0 mm 0.00 in0.0 mm 0.00 in0.0 mm
02:30 AM 72.2°F22.3°C 32.3°F0.2°C 23% Calm Calm 3.0 mph4.8 kmh 29.93 in1013.5 mb 0.00 in0.0 mm 0.00 in0.0 mm 0.00 in0.0 mm
02:00 AM 72.6°F22.6°C 32.6°F0.3°C 23% 1.0 mph WNW1.6 kmh WNW 2.0 mph3.2 kmh 29.92 in1013.2 mb 0.00 in0.0 mm 0.00 in0.0 mm 0.00 in0.0 mm
01:30 AM 71.8°F22.1°C 33.0°F0.6°C 24% 1.0 mph WNW1.6 kmh WNW 3.0 mph4.8 kmh 29.93 in1013.5 mb 0.00 in0.0 mm 0.00 in0.0 mm 0.00 in0.0 mm
01:00 AM 73.0°F22.8°C 33.0°F0.6°C 23% 1.0 mph WNW1.6 kmh WNW 3.0 mph4.8 kmh 29.94 in1013.9 mb 0.00 in0.0 mm 0.00 in0.0 mm 0.00 in0.0 mm
12:30 AM 72.9°F22.7°C 31.8°F-0.1°C 22% Calm Calm 3.0 mph4.8 kmh 29.94 in1013.9 mb 0.00 in0.0 mm 0.00 in0.0 mm 0.00 in0.0 mm
12:00 AM 72.4°F22.4°C 32.5°F0.3°C 23% Calm Calm 3.0 mph4.8 kmh 29.94 in1013.9 mb 0.00 in0.0 mm 0.00 in0.0 mm 0.00 in0.0 mm